sensor_id;sensor_type;location;lat;lon;timestamp;P1;durP1;ratioP1;P2;durP2;ratioP2
2712;SDS011;1366;47.988;7.856;2022-08-19T04:02:12;11.63;;;10.73;;
2712;SDS011;1366;47.988;7.856;2022-08-19T04:04:39;12.33;;;11.30;;
2712;SDS011;1366;47.988;7.856;2022-08-19T04:07:05;10.90;;;10.10;;
2712;SDS011;1366;47.988;7.856;2022-08-19T04:09:33;12.07;;;11.10;;
2712;SDS011;1366;47.988;7.856;2022-08-19T04:12:00;13.43;;;12.17;;
2712;SDS011;1366;47.988;7.856;2022-08-19T04:14:27;13.07;;;11.87;;
2712;SDS011;1366;47.988;7.856;2022-08-19T04:16:55;12.90;;;11.70;;
2712;SDS011;1366;47.988;7.856;2022-08-19T04:19:21;13.37;;;12.27;;
2712;SDS011;1366;47.988;7.856;2022-08-19T04:21:49;12.97;;;11.70;;
2712;SDS011;1366;47.988;7.856;2022-08-19T04:24:17;12.63;;;11.60;;
2712;SDS011;1366;47.988;7.856;2022-08-19T04:26:43;11.90;;;10.90;;
2712;SDS011;1366;47.988;7.856;2022-08-19T04:29:10;12.77;;;11.67;;
2712;SDS011;1366;47.988;7.856;2022-08-19T04:31:37;12.80;;;11.70;;
2712;SDS011;1366;47.988;7.856;2022-08-19T04:34:04;13.47;;;12.33;;
2712;SDS011;1366;47.988;7.856;2022-08-19T04:36:31;12.53;;;11.53;;
2712;SDS011;1366;47.988;7.856;2022-08-19T04:38:58;13.13;;;12.03;;
2712;SDS011;1366;47.988;7.856;2022-08-19T04:41:25;11.57;;;10.57;;
2712;SDS011;1366;47.988;7.856;2022-08-19T04:44:10;12.10;;;11.10;;
2712;SDS011;1366;47.988;7.856;2022-08-19T04:46:36;11.90;;;10.90;;
2712;SDS011;1366;47.988;7.856;2022-08-19T04:49:03;12.50;;;11.50;;
2712;SDS011;1366;47.988;7.856;2022-08-19T04:51:30;12.97;;;11.90;;
2712;SDS011;1366;47.988;7.856;2022-08-19T04:53:56;12.10;;;11.10;;
2712;SDS011;1366;47.988;7.856;2022-08-19T04:56:24;13.83;;;12.60;;
2712;SDS011;1366;47.988;7.856;2022-08-19T04:58:52;12.10;;;11.10;;
2712;SDS011;1366;47.988;7.856;2022-08-19T05:01:22;12.90;;;11.77;;
2712;SDS011;1366;47.988;7.856;2022-08-19T05:03:49;13.23;;;12.13;;
2712;SDS011;1366;47.988;7.856;2022-08-19T05:06:17;13.40;;;12.17;;
2712;SDS011;1366;47.988;7.856;2022-08-19T05:08:44;13.47;;;12.37;;
2712;SDS011;1366;47.988;7.856;2022-08-19T05:11:12;12.37;;;11.27;;
2712;SDS011;1366;47.988;7.856;2022-08-19T05:13:38;13.37;;;12.13;;
2712;SDS011;1366;47.988;7.856;2022-08-19T05:16:05;15.00;;;13.50;;
2712;SDS011;1366;47.988;7.856;2022-08-19T05:18:31;14.70;;;13.37;;
2712;SDS011;1366;47.988;7.856;2022-08-19T05:21:16;14.77;;;13.37;;
2712;SDS011;1366;47.988;7.856;2022-08-19T05:24:02;13.70;;;12.50;;
2712;SDS011;1366;47.988;7.856;2022-08-19T05:26:28;14.10;;;12.90;;
2712;SDS011;1366;47.988;7.856;2022-08-19T05:28:54;14.00;;;12.80;;
2712;SDS011;1366;47.988;7.856;2022-08-19T05:31:21;14.10;;;12.80;;
2712;SDS011;1366;47.988;7.856;2022-08-19T05:33:47;12.97;;;11.87;;
2712;SDS011;1366;47.988;7.856;2022-08-19T05:36:14;13.40;;;12.30;;
2712;SDS011;1366;47.988;7.856;2022-08-19T05:38:40;13.40;;;12.20;;
2712;SDS011;1366;47.988;7.856;2022-08-19T05:41:09;13.53;;;12.40;;
2712;SDS011;1366;47.988;7.856;2022-08-19T05:43:36;13.77;;;12.60;;
2712;SDS011;1366;47.988;7.856;2022-08-19T05:46:02;13.70;;;12.40;;
2712;SDS011;1366;47.988;7.856;2022-08-19T05:48:30;13.90;;;12.80;;
2712;SDS011;1366;47.988;7.856;2022-08-19T05:50:57;13.33;;;11.97;;
2712;SDS011;1366;47.988;7.856;2022-08-19T05:53:24;13.30;;;12.20;;
2712;SDS011;1366;47.988;7.856;2022-08-19T05:55:50;12.40;;;11.10;;
2712;SDS011;1366;47.988;7.856;2022-08-19T05:58:17;12.53;;;11.43;;
2712;SDS011;1366;47.988;7.856;2022-08-19T06:00:43;12.00;;;11.00;;
2712;SDS011;1366;47.988;7.856;2022-08-19T06:03:10;12.00;;;10.80;;
2712;SDS011;1366;47.988;7.856;2022-08-19T06:05:36;12.33;;;11.23;;
2712;SDS011;1366;47.988;7.856;2022-08-19T06:08:02;12.73;;;11.60;;
2712;SDS011;1366;47.988;7.856;2022-08-19T06:10:29;12.30;;;11.20;;
2712;SDS011;1366;47.988;7.856;2022-08-19T06:12:55;12.10;;;11.00;;
2712;SDS011;1366;47.988;7.856;2022-08-19T06:15:21;11.63;;;10.73;;
2712;SDS011;1366;47.988;7.856;2022-08-19T06:17:50;11.70;;;10.70;;
2712;SDS011;1366;47.988;7.856;2022-08-19T06:20:16;11.17;;;10.27;;
2712;SDS011;1366;47.988;7.856;2022-08-19T06:22:45;11.30;;;10.40;;
2712;SDS011;1366;47.988;7.856;2022-08-19T06:25:12;10.73;;;9.83;;
2712;SDS011;1366;47.988;7.856;2022-08-19T06:27:39;12.70;;;11.60;;
2712;SDS011;1366;47.988;7.856;2022-08-19T06:30:06;12.33;;;11.37;;
2712;SDS011;1366;47.988;7.856;2022-08-19T06:32:32;13.20;;;12.10;;
2712;SDS011;1366;47.988;7.856;2022-08-19T06:34:58;13.10;;;11.90;;
2712;SDS011;1366;47.988;7.856;2022-08-19T06:37:24;13.47;;;12.17;;
2712;SDS011;1366;47.988;7.856;2022-08-19T06:39:50;12.93;;;11.90;;
2712;SDS011;1366;47.988;7.856;2022-08-19T06:42:16;13.00;;;11.93;;
2712;SDS011;1366;47.988;7.856;2022-08-19T06:44:44;11.73;;;10.77;;
2712;SDS011;1366;47.988;7.856;2022-08-19T06:47:11;11.67;;;10.77;;
2712;SDS011;1366;47.988;7.856;2022-08-19T06:49:38;11.80;;;10.90;;
2712;SDS011;1366;47.988;7.856;2022-08-19T06:52:04;12.60;;;11.40;;
2712;SDS011;1366;47.988;7.856;2022-08-19T06:54:31;13.40;;;12.20;;
2712;SDS011;1366;47.988;7.856;2022-08-19T06:57:00;12.13;;;11.13;;
2712;SDS011;1366;47.988;7.856;2022-08-19T06:59:27;12.30;;;11.30;;
2712;SDS011;1366;47.988;7.856;2022-08-19T07:01:57;14.70;;;13.40;;
2712;SDS011;1366;47.988;7.856;2022-08-19T07:04:25;13.33;;;12.23;;
2712;SDS011;1366;47.988;7.856;2022-08-19T07:06:57;13.63;;;12.43;;
2712;SDS011;1366;47.988;7.856;2022-08-19T07:09:25;13.17;;;12.10;;
2712;SDS011;1366;47.988;7.856;2022-08-19T07:11:52;12.47;;;11.43;;
2712;SDS011;1366;47.988;7.856;2022-08-19T07:14:19;13.50;;;12.20;;
2712;SDS011;1366;47.988;7.856;2022-08-19T07:16:47;14.43;;;13.17;;
2712;SDS011;1366;47.988;7.856;2022-08-19T07:19:13;13.60;;;12.40;;
2712;SDS011;1366;47.988;7.856;2022-08-19T07:21:39;13.33;;;12.23;;
2712;SDS011;1366;47.988;7.856;2022-08-19T07:24:06;13.83;;;12.63;;
2712;SDS011;1366;47.988;7.856;2022-08-19T07:26:40;14.07;;;12.87;;
2712;SDS011;1366;47.988;7.856;2022-08-19T07:29:06;14.37;;;13.07;;
2712;SDS011;1366;47.988;7.856;2022-08-19T07:31:32;14.30;;;13.00;;
2712;SDS011;1366;47.988;7.856;2022-08-19T07:34:03;14.00;;;12.57;;
2712;SDS011;1366;47.988;7.856;2022-08-19T07:36:33;15.53;;;14.13;;
2712;SDS011;1366;47.988;7.856;2022-08-19T07:39:00;16.47;;;14.87;;
2712;SDS011;1366;47.988;7.856;2022-08-19T07:41:27;15.77;;;14.33;;
2712;SDS011;1366;47.988;7.856;2022-08-19T07:43:56;16.60;;;14.90;;
2712;SDS011;1366;47.988;7.856;2022-08-19T07:46:23;16.57;;;14.97;;
2712;SDS011;1366;47.988;7.856;2022-08-19T07:48:49;16.00;;;14.47;;
2712;SDS011;1366;47.988;7.856;2022-08-19T07:51:17;17.10;;;15.50;;
2712;SDS011;1366;47.988;7.856;2022-08-19T07:53:43;17.37;;;15.63;;
2712;SDS011;1366;47.988;7.856;2022-08-19T07:56:11;17.87;;;16.17;;
2712;SDS011;1366;47.988;7.856;2022-08-19T07:58:39;17.40;;;15.60;;
2712;SDS011;1366;47.988;7.856;2022-08-19T08:01:06;17.73;;;16.13;;
2712;SDS011;1366;47.988;7.856;2022-08-19T08:03:33;16.67;;;15.17;;
2712;SDS011;1366;47.988;7.856;2022-08-19T08:06:18;18.37;;;16.67;;
2712;SDS011;1366;47.988;7.856;2022-08-19T08:09:03;22.30;;;20.30;;
2712;SDS011;1366;47.988;7.856;2022-08-19T08:11:36;19.87;;;17.97;;
2712;SDS011;1366;47.988;7.856;2022-08-19T08:14:02;18.63;;;17.03;;
2712;SDS011;1366;47.988;7.856;2022-08-19T08:16:30;21.27;;;19.17;;
2712;SDS011;1366;47.988;7.856;2022-08-19T08:18:57;19.83;;;17.93;;
2712;SDS011;1366;47.988;7.856;2022-08-19T08:21:24;20.17;;;18.17;;
2712;SDS011;1366;47.988;7.856;2022-08-19T08:23:50;19.50;;;17.70;;
2712;SDS011;1366;47.988;7.856;2022-08-19T08:26:20;21.83;;;19.67;;
2712;SDS011;1366;47.988;7.856;2022-08-19T08:28:46;20.90;;;19.00;;
2712;SDS011;1366;47.988;7.856;2022-08-19T08:31:13;21.67;;;19.67;;
2712;SDS011;1366;47.988;7.856;2022-08-19T08:33:39;20.63;;;18.73;;
2712;SDS011;1366;47.988;7.856;2022-08-19T08:36:07;20.50;;;18.60;;
2712;SDS011;1366;47.988;7.856;2022-08-19T08:38:34;21.87;;;19.73;;
2712;SDS011;1366;47.988;7.856;2022-08-19T08:41:03;19.40;;;17.60;;
2712;SDS011;1366;47.988;7.856;2022-08-19T08:46:15;22.97;;;18.43;;
2712;SDS011;1366;47.988;7.856;2022-08-19T08:48:49;21.70;;;19.43;;
2712;SDS011;1366;47.988;7.856;2022-08-19T08:51:20;22.37;;;20.10;;
2712;SDS011;1366;47.988;7.856;2022-08-19T08:53:48;21.40;;;19.40;;
2712;SDS011;1366;47.988;7.856;2022-08-19T08:56:15;22.93;;;20.63;;
2712;SDS011;1366;47.988;7.856;2022-08-19T08:58:48;27.90;;;20.87;;
2712;SDS011;1366;47.988;7.856;2022-08-19T09:01:17;22.13;;;19.70;;
2712;SDS011;1366;47.988;7.856;2022-08-19T09:03:44;28.00;;;21.70;;
2712;SDS011;1366;47.988;7.856;2022-08-19T09:08:51;21.87;;;19.73;;
2712;SDS011;1366;47.988;7.856;2022-08-19T09:16:23;22.10;;;20.10;;
2712;SDS011;1366;47.988;7.856;2022-08-19T09:18:53;24.13;;;21.77;;
2712;SDS011;1366;47.988;7.856;2022-08-19T09:21:20;22.53;;;20.43;;
2712;SDS011;1366;47.988;7.856;2022-08-19T09:23:50;24.97;;;22.43;;
2712;SDS011;1366;47.988;7.856;2022-08-19T09:26:17;22.90;;;20.70;;
2712;SDS011;1366;47.988;7.856;2022-08-19T09:28:45;22.77;;;20.60;;
2712;SDS011;1366;47.988;7.856;2022-08-19T09:31:15;22.73;;;20.53;;
2712;SDS011;1366;47.988;7.856;2022-08-19T09:33:42;24.13;;;21.80;;
2712;SDS011;1366;47.988;7.856;2022-08-19T09:36:11;22.60;;;20.30;;
2712;SDS011;1366;47.988;7.856;2022-08-19T09:38:37;26.20;;;20.67;;
2712;SDS011;1366;47.988;7.856;2022-08-19T09:41:06;23.27;;;20.97;;
2712;SDS011;1366;47.988;7.856;2022-08-19T09:43:32;23.43;;;21.13;;
2712;SDS011;1366;47.988;7.856;2022-08-19T09:46:05;23.00;;;20.80;;
2712;SDS011;1366;47.988;7.856;2022-08-19T09:48:34;23.17;;;20.70;;
2712;SDS011;1366;47.988;7.856;2022-08-19T09:51:08;21.90;;;19.83;;
2712;SDS011;1366;47.988;7.856;2022-08-19T09:53:35;22.73;;;20.53;;
2712;SDS011;1366;47.988;7.856;2022-08-19T09:56:01;23.97;;;21.70;;
2712;SDS011;1366;47.988;7.856;2022-08-19T09:58:27;22.13;;;20.13;;
2712;SDS011;1366;47.988;7.856;2022-08-19T10:00:55;21.10;;;19.17;;
2712;SDS011;1366;47.988;7.856;2022-08-19T10:03:21;23.90;;;21.67;;
2712;SDS011;1366;47.988;7.856;2022-08-19T10:05:47;22.90;;;20.70;;
2712;SDS011;1366;47.988;7.856;2022-08-19T10:08:13;24.37;;;22.10;;
2712;SDS011;1366;47.988;7.856;2022-08-19T10:10:42;22.90;;;20.67;;
2712;SDS011;1366;47.988;7.856;2022-08-19T10:13:09;22.20;;;20.17;;
2712;SDS011;1366;47.988;7.856;2022-08-19T10:15:35;22.83;;;20.77;;
2712;SDS011;1366;47.988;7.856;2022-08-19T10:18:04;23.57;;;21.27;;
2712;SDS011;1366;47.988;7.856;2022-08-19T10:20:30;23.17;;;21.07;;
2712;SDS011;1366;47.988;7.856;2022-08-19T10:22:57;24.37;;;21.97;;
2712;SDS011;1366;47.988;7.856;2022-08-19T10:25:24;23.80;;;21.60;;
2712;SDS011;1366;47.988;7.856;2022-08-19T10:27:51;22.83;;;20.73;;
2712;SDS011;1366;47.988;7.856;2022-08-19T10:30:18;21.97;;;19.97;;
2712;SDS011;1366;47.988;7.856;2022-08-19T10:32:44;24.13;;;21.80;;
2712;SDS011;1366;47.988;7.856;2022-08-19T10:35:10;24.37;;;22.10;;
2712;SDS011;1366;47.988;7.856;2022-08-19T10:37:37;24.77;;;22.37;;
2712;SDS011;1366;47.988;7.856;2022-08-19T10:40:07;25.77;;;23.27;;
2712;SDS011;1366;47.988;7.856;2022-08-19T10:42:35;24.10;;;21.90;;
2712;SDS011;1366;47.988;7.856;2022-08-19T10:45:02;23.03;;;20.83;;
2712;SDS011;1366;47.988;7.856;2022-08-19T10:47:30;23.93;;;21.77;;
2712;SDS011;1366;47.988;7.856;2022-08-19T10:49:56;23.40;;;21.20;;
2712;SDS011;1366;47.988;7.856;2022-08-19T10:52:45;24.20;;;21.90;;
2712;SDS011;1366;47.988;7.856;2022-08-19T10:55:12;24.98;;;22.67;;
2712;SDS011;1366;47.988;7.856;2022-08-19T10:57:56;23.40;;;21.10;;
2712;SDS011;1366;47.988;7.856;2022-08-19T11:00:24;24.73;;;22.43;;
2712;SDS011;1366;47.988;7.856;2022-08-19T11:02:51;21.80;;;19.67;;
2712;SDS011;1366;47.988;7.856;2022-08-19T11:05:17;24.30;;;22.00;;
2712;SDS011;1366;47.988;7.856;2022-08-19T11:07:44;24.43;;;22.20;;
2712;SDS011;1366;47.988;7.856;2022-08-19T11:10:11;22.40;;;20.20;;
2712;SDS011;1366;47.988;7.856;2022-08-19T11:12:38;24.77;;;22.47;;
2712;SDS011;1366;47.988;7.856;2022-08-19T11:15:04;23.00;;;20.80;;
2712;SDS011;1366;47.988;7.856;2022-08-19T11:17:30;22.15;;;19.92;;
2712;SDS011;1366;47.988;7.856;2022-08-19T11:19:57;26.33;;;23.70;;
2712;SDS011;1366;47.988;7.856;2022-08-19T11:22:23;21.87;;;19.87;;
2712;SDS011;1366;47.988;7.856;2022-08-19T11:24:49;23.30;;;21.20;;
2712;SDS011;1366;47.988;7.856;2022-08-19T11:27:16;23.07;;;20.87;;
2712;SDS011;1366;47.988;7.856;2022-08-19T11:29:42;21.47;;;19.47;;
2712;SDS011;1366;47.988;7.856;2022-08-19T11:32:09;22.30;;;20.20;;
2712;SDS011;1366;47.988;7.856;2022-08-19T11:34:35;23.20;;;21.10;;
2712;SDS011;1366;47.988;7.856;2022-08-19T11:37:02;25.63;;;23.17;;
2712;SDS011;1366;47.988;7.856;2022-08-19T11:39:30;26.77;;;24.10;;
2712;SDS011;1366;47.988;7.856;2022-08-19T11:41:59;22.30;;;20.13;;
2712;SDS011;1366;47.988;7.856;2022-08-19T11:44:27;25.53;;;22.83;;
2712;SDS011;1366;47.988;7.856;2022-08-19T11:46:55;25.33;;;22.47;;
2712;SDS011;1366;47.988;7.856;2022-08-19T11:49:21;27.10;;;24.40;;
2712;SDS011;1366;47.988;7.856;2022-08-19T11:51:47;25.43;;;22.93;;
2712;SDS011;1366;47.988;7.856;2022-08-19T11:54:15;27.30;;;24.40;;
2712;SDS011;1366;47.988;7.856;2022-08-19T11:56:42;26.77;;;24.17;;
2712;SDS011;1366;47.988;7.856;2022-08-19T11:59:09;29.50;;;26.30;;
2712;SDS011;1366;47.988;7.856;2022-08-19T12:01:35;28.50;;;25.70;;
2712;SDS011;1366;47.988;7.856;2022-08-19T12:04:02;28.27;;;25.53;;
2712;SDS011;1366;47.988;7.856;2022-08-19T12:06:31;27.73;;;24.90;;
2712;SDS011;1366;47.988;7.856;2022-08-19T12:09:00;25.37;;;22.90;;
2712;SDS011;1366;47.988;7.856;2022-08-19T12:11:26;24.93;;;22.40;;
2712;SDS011;1366;47.988;7.856;2022-08-19T12:13:53;28.87;;;26.07;;
2712;SDS011;1366;47.988;7.856;2022-08-19T12:16:20;27.07;;;24.47;;
2712;SDS011;1366;47.988;7.856;2022-08-19T12:18:48;23.87;;;21.63;;
2712;SDS011;1366;47.988;7.856;2022-08-19T12:21:16;22.60;;;20.50;;
2712;SDS011;1366;47.988;7.856;2022-08-19T12:23:43;21.00;;;19.07;;
2712;SDS011;1366;47.988;7.856;2022-08-19T12:26:12;24.10;;;22.00;;
2712;SDS011;1366;47.988;7.856;2022-08-19T12:28:38;25.25;;;22.85;;
2712;SDS011;1366;47.988;7.856;2022-08-19T12:31:04;24.07;;;21.73;;
2712;SDS011;1366;47.988;7.856;2022-08-19T12:33:31;20.97;;;19.27;;
2712;SDS011;1366;47.988;7.856;2022-08-19T12:36:00;22.47;;;20.67;;
2712;SDS011;1366;47.988;7.856;2022-08-19T12:38:27;20.57;;;18.67;;
2712;SDS011;1366;47.988;7.856;2022-08-19T12:40:53;20.80;;;18.77;;
2712;SDS011;1366;47.988;7.856;2022-08-19T12:43:20;19.50;;;17.80;;
2712;SDS011;1366;47.988;7.856;2022-08-19T12:45:46;18.50;;;16.97;;
2712;SDS011;1366;47.988;7.856;2022-08-19T12:48:13;22.87;;;21.03;;
2712;SDS011;1366;47.988;7.856;2022-08-19T12:50:40;19.60;;;18.00;;
2712;SDS011;1366;47.988;7.856;2022-08-19T12:53:06;20.33;;;18.73;;
2712;SDS011;1366;47.988;7.856;2022-08-19T12:55:32;19.40;;;17.90;;
2712;SDS011;1366;47.988;7.856;2022-08-19T12:57:58;21.57;;;19.87;;
2712;SDS011;1366;47.988;7.856;2022-08-19T13:00:26;21.50;;;19.80;;
2712;SDS011;1366;47.988;7.856;2022-08-19T13:02:52;19.53;;;17.97;;
2712;SDS011;1366;47.988;7.856;2022-08-19T13:05:23;20.13;;;18.50;;
2712;SDS011;1366;47.988;7.856;2022-08-19T13:07:50;19.40;;;17.80;;
2712;SDS011;1366;47.988;7.856;2022-08-19T13:10:18;20.70;;;19.00;;
2712;SDS011;1366;47.988;7.856;2022-08-19T13:12:45;20.40;;;18.80;;
2712;SDS011;1366;47.988;7.856;2022-08-19T13:15:12;18.35;;;16.70;;
2712;SDS011;1366;47.988;7.856;2022-08-19T13:17:38;19.67;;;17.97;;
2712;SDS011;1366;47.988;7.856;2022-08-19T13:20:05;19.30;;;17.67;;
2712;SDS011;1366;47.988;7.856;2022-08-19T13:22:33;20.50;;;18.70;;
2712;SDS011;1366;47.988;7.856;2022-08-19T13:25:00;18.80;;;17.10;;
2712;SDS011;1366;47.988;7.856;2022-08-19T13:27:26;20.27;;;18.53;;
2712;SDS011;1366;47.988;7.856;2022-08-19T13:29:52;19.50;;;17.97;;
2712;SDS011;1366;47.988;7.856;2022-08-19T13:32:37;19.43;;;17.80;;
2712;SDS011;1366;47.988;7.856;2022-08-19T13:35:22;18.97;;;17.47;;
2712;SDS011;1366;47.988;7.856;2022-08-19T13:37:48;19.57;;;17.87;;
2712;SDS011;1366;47.988;7.856;2022-08-19T13:40:15;19.87;;;18.07;;
2712;SDS011;1366;47.988;7.856;2022-08-19T13:42:43;18.50;;;17.00;;
2712;SDS011;1366;47.988;7.856;2022-08-19T13:45:13;19.63;;;18.03;;
2712;SDS011;1366;47.988;7.856;2022-08-19T13:47:40;17.80;;;16.50;;
2712;SDS011;1366;47.988;7.856;2022-08-19T13:50:13;17.53;;;16.23;;
2712;SDS011;1366;47.988;7.856;2022-08-19T13:52:39;18.67;;;17.17;;
2712;SDS011;1366;47.988;7.856;2022-08-19T13:55:06;20.20;;;18.60;;
2712;SDS011;1366;47.988;7.856;2022-08-19T13:57:32;18.43;;;16.97;;
2712;SDS011;1366;47.988;7.856;2022-08-19T13:59:59;19.20;;;17.70;;
2712;SDS011;1366;47.988;7.856;2022-08-19T14:02:25;18.80;;;17.20;;
2712;SDS011;1366;47.988;7.856;2022-08-19T14:04:51;16.63;;;15.33;;
2712;SDS011;1366;47.988;7.856;2022-08-19T14:07:17;16.57;;;15.27;;
2712;SDS011;1366;47.988;7.856;2022-08-19T14:09:43;17.07;;;15.77;;
2712;SDS011;1366;47.988;7.856;2022-08-19T14:12:09;15.67;;;14.37;;
2712;SDS011;1366;47.988;7.856;2022-08-19T14:14:38;14.60;;;13.60;;
2712;SDS011;1366;47.988;7.856;2022-08-19T14:17:08;14.97;;;13.97;;
2712;SDS011;1366;47.988;7.856;2022-08-19T14:19:34;13.93;;;12.90;;
2712;SDS011;1366;47.988;7.856;2022-08-19T14:22:01;14.10;;;13.10;;
2712;SDS011;1366;47.988;7.856;2022-08-19T14:24:27;15.73;;;14.63;;
2712;SDS011;1366;47.988;7.856;2022-08-19T14:26:53;14.97;;;13.97;;
2712;SDS011;1366;47.988;7.856;2022-08-19T14:29:19;15.63;;;14.43;;
2712;SDS011;1366;47.988;7.856;2022-08-19T14:31:45;15.87;;;14.77;;
2712;SDS011;1366;47.988;7.856;2022-08-19T14:34:11;15.20;;;14.10;;
2712;SDS011;1366;47.988;7.856;2022-08-19T14:36:37;15.23;;;14.20;;
2712;SDS011;1366;47.988;7.856;2022-08-19T14:39:03;15.90;;;14.40;;
2712;SDS011;1366;47.988;7.856;2022-08-19T14:41:30;16.57;;;15.37;;
2712;SDS011;1366;47.988;7.856;2022-08-19T14:43:57;16.40;;;15.10;;
2712;SDS011;1366;47.988;7.856;2022-08-19T14:46:26;15.60;;;14.20;;
2712;SDS011;1366;47.988;7.856;2022-08-19T14:48:53;14.80;;;13.50;;
2712;SDS011;1366;47.988;7.856;2022-08-19T14:51:20;15.95;;;14.50;;
2712;SDS011;1366;47.988;7.856;2022-08-19T14:53:46;16.50;;;15.30;;
2712;SDS011;1366;47.988;7.856;2022-08-19T14:56:16;14.93;;;13.73;;
2712;SDS011;1366;47.988;7.856;2022-08-19T14:58:43;15.87;;;14.57;;
2712;SDS011;1366;47.988;7.856;2022-08-19T15:01:10;14.77;;;13.60;;
2712;SDS011;1366;47.988;7.856;2022-08-19T15:03:37;16.10;;;14.70;;
2712;SDS011;1366;47.988;7.856;2022-08-19T15:06:04;17.47;;;15.97;;
2712;SDS011;1366;47.988;7.856;2022-08-19T15:08:31;17.67;;;16.27;;
2712;SDS011;1366;47.988;7.856;2022-08-19T15:10:58;16.23;;;15.03;;
2712;SDS011;1366;47.988;7.856;2022-08-19T15:13:25;14.67;;;13.43;;
2712;SDS011;1366;47.988;7.856;2022-08-19T15:15:52;16.20;;;14.70;;
2712;SDS011;1366;47.988;7.856;2022-08-19T15:18:18;15.23;;;14.13;;
2712;SDS011;1366;47.988;7.856;2022-08-19T15:20:45;15.13;;;13.93;;
2712;SDS011;1366;47.988;7.856;2022-08-19T15:23:12;14.60;;;13.57;;
2712;SDS011;1366;47.988;7.856;2022-08-19T15:25:39;14.37;;;13.27;;
2712;SDS011;1366;47.988;7.856;2022-08-19T15:28:06;14.77;;;13.47;;
2712;SDS011;1366;47.988;7.856;2022-08-19T15:30:32;14.40;;;13.23;;
2712;SDS011;1366;47.988;7.856;2022-08-19T15:32:58;15.17;;;13.87;;
2712;SDS011;1366;47.988;7.856;2022-08-19T15:35:25;14.80;;;13.57;;
2712;SDS011;1366;47.988;7.856;2022-08-19T15:37:52;14.65;;;13.55;;
2712;SDS011;1366;47.988;7.856;2022-08-19T15:40:19;13.87;;;12.80;;
2712;SDS011;1366;47.988;7.856;2022-08-19T15:42:46;14.50;;;13.30;;
2712;SDS011;1366;47.988;7.856;2022-08-19T15:45:13;14.60;;;13.40;;
2712;SDS011;1366;47.988;7.856;2022-08-19T15:47:39;13.97;;;12.77;;
2712;SDS011;1366;47.988;7.856;2022-08-19T15:50:10;14.47;;;13.20;;
2712;SDS011;1366;47.988;7.856;2022-08-19T15:52:43;14.13;;;13.03;;
2712;SDS011;1366;47.988;7.856;2022-08-19T15:55:10;14.30;;;13.13;;
2712;SDS011;1366;47.988;7.856;2022-08-19T15:57:36;14.07;;;12.80;;
2712;SDS011;1366;47.988;7.856;2022-08-19T16:00:28;14.80;;;13.53;;
2712;SDS011;1366;47.988;7.856;2022-08-19T16:03:13;14.30;;;13.30;;
2712;SDS011;1366;47.988;7.856;2022-08-19T16:05:59;15.70;;;14.33;;
2712;SDS011;1366;47.988;7.856;2022-08-19T16:08:44;16.83;;;15.53;;
2712;SDS011;1366;47.988;7.856;2022-08-19T16:11:14;15.80;;;14.57;;
2712;SDS011;1366;47.988;7.856;2022-08-19T16:13:41;15.10;;;14.00;;
2712;SDS011;1366;47.988;7.856;2022-08-19T16:16:08;14.43;;;13.33;;
2712;SDS011;1366;47.988;7.856;2022-08-19T16:18:34;11.20;;;10.30;;
2712;SDS011;1366;47.988;7.856;2022-08-19T16:21:03;15.13;;;14.00;;
2712;SDS011;1366;47.988;7.856;2022-08-19T16:23:30;15.00;;;13.80;;
2712;SDS011;1366;47.988;7.856;2022-08-19T16:25:56;14.45;;;13.25;;
2712;SDS011;1366;47.988;7.856;2022-08-19T16:28:22;14.00;;;13.03;;
2712;SDS011;1366;47.988;7.856;2022-08-19T16:30:48;14.77;;;13.60;;
2712;SDS011;1366;47.988;7.856;2022-08-19T16:33:14;14.07;;;13.07;;
2712;SDS011;1366;47.988;7.856;2022-08-19T16:35:40;14.13;;;12.93;;
2712;SDS011;1366;47.988;7.856;2022-08-19T16:38:06;13.70;;;12.60;;
2712;SDS011;1366;47.988;7.856;2022-08-19T16:40:32;13.60;;;12.60;;
2712;SDS011;1366;47.988;7.856;2022-08-19T16:42:59;14.87;;;13.77;;
2712;SDS011;1366;47.988;7.856;2022-08-19T16:45:26;13.70;;;12.70;;
2712;SDS011;1366;47.988;7.856;2022-08-19T16:47:52;14.03;;;13.00;;
2712;SDS011;1366;47.988;7.856;2022-08-19T16:50:21;13.57;;;12.48;;
2712;SDS011;1366;47.988;7.856;2022-08-19T16:52:48;13.00;;;12.00;;
2712;SDS011;1366;47.988;7.856;2022-08-19T16:55:14;12.73;;;11.73;;
2712;SDS011;1366;47.988;7.856;2022-08-19T16:57:41;13.20;;;12.20;;
2712;SDS011;1366;47.988;7.856;2022-08-19T17:00:07;14.63;;;13.30;;
2712;SDS011;1366;47.988;7.856;2022-08-19T17:02:37;13.30;;;12.40;;
2712;SDS011;1366;47.988;7.856;2022-08-19T17:05:07;12.30;;;11.30;;
2712;SDS011;1366;47.988;7.856;2022-08-19T17:07:33;12.70;;;11.60;;
2712;SDS011;1366;47.988;7.856;2022-08-19T17:10:00;12.20;;;11.27;;
2712;SDS011;1366;47.988;7.856;2022-08-19T17:12:27;12.10;;;11.10;;
2712;SDS011;1366;47.988;7.856;2022-08-19T17:14:55;12.33;;;11.33;;
2712;SDS011;1366;47.988;7.856;2022-08-19T17:17:21;13.63;;;12.67;;
2712;SDS011;1366;47.988;7.856;2022-08-19T17:19:47;13.90;;;12.83;;
2712;SDS011;1366;47.988;7.856;2022-08-19T17:22:13;12.83;;;11.93;;
2712;SDS011;1366;47.988;7.856;2022-08-19T17:24:39;13.00;;;12.00;;
2712;SDS011;1366;47.988;7.856;2022-08-19T17:27:05;12.40;;;11.50;;
2712;SDS011;1366;47.988;7.856;2022-08-19T17:29:32;12.93;;;12.03;;
2712;SDS011;1366;47.988;7.856;2022-08-19T17:31:58;12.63;;;11.60;;
2712;SDS011;1366;47.988;7.856;2022-08-19T17:34:24;12.87;;;11.93;;
2712;SDS011;1366;47.988;7.856;2022-08-19T17:36:52;13.97;;;12.90;;
2712;SDS011;1366;47.988;7.856;2022-08-19T17:39:20;13.40;;;12.27;;
2712;SDS011;1366;47.988;7.856;2022-08-19T17:41:46;14.23;;;13.03;;
2712;SDS011;1366;47.988;7.856;2022-08-19T17:44:13;14.17;;;13.07;;
2712;SDS011;1366;47.988;7.856;2022-08-19T17:46:40;14.07;;;12.97;;
2712;SDS011;1366;47.988;7.856;2022-08-19T17:49:06;14.70;;;13.40;;
2712;SDS011;1366;47.988;7.856;2022-08-19T17:53:59;13.93;;;12.80;;
2712;SDS011;1366;47.988;7.856;2022-08-19T17:56:26;14.27;;;13.27;;
2712;SDS011;1366;47.988;7.856;2022-08-19T17:58:55;14.63;;;13.40;;
2712;SDS011;1366;47.988;7.856;2022-08-19T18:01:21;14.10;;;13.00;;
2712;SDS011;1366;47.988;7.856;2022-08-19T18:03:47;13.33;;;12.33;;
2712;SDS011;1366;47.988;7.856;2022-08-19T18:06:13;13.73;;;12.63;;
2712;SDS011;1366;47.988;7.856;2022-08-19T18:08:40;15.83;;;14.53;;
2712;SDS011;1366;47.988;7.856;2022-08-19T18:11:07;13.57;;;12.57;;
2712;SDS011;1366;47.988;7.856;2022-08-19T18:13:34;13.47;;;12.47;;
2712;SDS011;1366;47.988;7.856;2022-08-19T18:16:00;13.87;;;12.77;;
2712;SDS011;1366;47.988;7.856;2022-08-19T18:18:26;14.50;;;13.30;;
2712;SDS011;1366;47.988;7.856;2022-08-19T18:20:53;14.40;;;13.20;;
2712;SDS011;1366;47.988;7.856;2022-08-19T18:23:20;15.03;;;13.67;;
2712;SDS011;1366;47.988;7.856;2022-08-19T18:25:46;14.37;;;13.07;;
2712;SDS011;1366;47.988;7.856;2022-08-19T18:28:12;13.77;;;12.67;;
2712;SDS011;1366;47.988;7.856;2022-08-19T18:30:39;15.47;;;14.27;;
2712;SDS011;1366;47.988;7.856;2022-08-19T18:33:06;13.80;;;12.80;;
2712;SDS011;1366;47.988;7.856;2022-08-19T18:35:40;14.10;;;13.00;;
2712;SDS011;1366;47.988;7.856;2022-08-19T18:38:09;15.30;;;14.10;;
2712;SDS011;1366;47.988;7.856;2022-08-19T18:40:54;14.38;;;13.27;;
2712;SDS011;1366;47.988;7.856;2022-08-19T18:43:39;13.87;;;12.77;;
2712;SDS011;1366;47.988;7.856;2022-08-19T18:46:23;14.30;;;13.10;;
2712;SDS011;1366;47.988;7.856;2022-08-19T18:49:09;14.27;;;13.00;;
2712;SDS011;1366;47.988;7.856;2022-08-19T18:51:35;13.90;;;12.80;;
2712;SDS011;1366;47.988;7.856;2022-08-19T18:54:01;15.37;;;14.27;;
2712;SDS011;1366;47.988;7.856;2022-08-19T18:56:28;16.10;;;14.53;;
2712;SDS011;1366;47.988;7.856;2022-08-19T18:58:59;15.07;;;13.87;;
2712;SDS011;1366;47.988;7.856;2022-08-19T19:01:29;15.57;;;14.30;;
2712;SDS011;1366;47.988;7.856;2022-08-19T19:03:58;15.00;;;13.70;;
2712;SDS011;1366;47.988;7.856;2022-08-19T19:06:26;14.80;;;13.60;;